Time;durP1;ratioP1;P1;durP2;ratioP2;P2;SDS_P1;SDS_P2;PMS_P1;PMS_P2;Temp;Humidity;BMP_temperature;BMP_pressure;BME280_temperature;BME280_humidity;BME280_pressure;Samples;Min_cycle;Max_cycle;Signal;HPM_P1;HPM_P2
2022/12/17 13:06:00;;;;;;;;;73.33;53.00;;;;;;;;4955098;28;45894;-67
2022/12/17 13:08:25;;;;;;;;;71.00;52.67;;;;;;;;4956191;28;45479;-67
2022/12/17 13:10:51;;;;;;;;;64.33;48.33;;;;;;;;4982015;28;45440;-67
2022/12/17 13:13:17;;;;;;;;;70.00;47.67;;;;;;;;4961021;28;45486;-68
2022/12/17 13:15:52;;;;;;;;;63.33;49.67;;;;;;;;4976999;28;46305;-67
2022/12/17 13:18:25;;;;;;;;;65.00;50.33;;;;;;;;4972376;28;45515;-68
2022/12/17 13:21:16;;;;;;;;;71.00;51.00;;;;;;;;4988405;28;46560;-67
2022/12/17 13:23:42;;;;;;;;;62.67;48.67;;;;;;;;4954279;28;45498;-67
2022/12/17 13:26:10;;;;;;;;;64.33;47.33;;;;;;;;4968515;28;45415;-67
2022/12/17 13:28:36;;;;;;;;;68.67;45.33;;;;;;;;5011427;28;45476;-67
2022/12/17 13:31:02;;;;;;;;;68.33;48.67;;;;;;;;4995558;28;45317;-67
2022/12/17 13:33:28;;;;;;;;;70.33;50.67;;;;;;;;5010061;27;45569;-67
2022/12/17 13:36:10;;;;;;;;;66.33;52.00;;;;;;;;5075870;27;46100;-67
2022/12/17 13:38:53;;;;;;;;;67.67;48.33;;;;;;;;5074390;27;45520;-68
2022/12/17 13:41:20;;;;;;;;;67.00;50.00;;;;;;;;5077112;27;45789;-67
2022/12/17 13:43:48;;;;;;;;;54.33;45.67;;;;;;;;5077218;28;45491;-67
2022/12/17 13:46:36;;;;;;;;;60.67;46.00;;;;;;;;5087037;27;45488;-67
2022/12/17 13:49:03;;;;;;;;;65.33;50.33;;;;;;;;5054220;28;45448;-67
2022/12/17 13:51:30;;;;;;;;;57.33;42.00;;;;;;;;5062351;28;45263;-68
2022/12/17 13:53:56;;;;;;;;;66.67;49.00;;;;;;;;5074656;28;45454;-67
2022/12/17 13:56:23;;;;;;;;;52.00;37.00;;;;;;;;5054839;28;46194;-67
2022/12/17 13:58:52;;;;;;;;;63.00;50.67;;;;;;;;5054340;28;45495;-67
2022/12/17 14:01:17;;;;;;;;;63.00;46.00;;;;;;;;5053324;28;45516;-67
2022/12/17 14:03:48;;;;;;;;;51.67;45.67;;;;;;;;5054183;28;45490;-67
2022/12/17 14:06:13;;;;;;;;;60.67;42.67;;;;;;;;5053859;28;46375;-67
2022/12/17 14:08:39;;;;;;;;;61.00;47.00;;;;;;;;5063755;28;45474;-67
2022/12/17 14:13:49;;;;;;;;;65.33;46.33;;;;;;;;5072750;28;45427;-67
2022/12/17 14:16:18;;;;;;;;;63.67;50.00;;;;;;;;5053521;28;46345;-67
2022/12/17 14:18:46;;;;;;;;;59.33;45.00;;;;;;;;5053195;28;45840;-66
2022/12/17 14:21:11;;;;;;;;;60.67;44.33;;;;;;;;5050034;28;45426;-66
2022/12/17 14:23:38;;;;;;;;;65.33;48.67;;;;;;;;5053960;28;45384;-66
2022/12/17 14:26:03;;;;;;;;;63.33;50.67;;;;;;;;5055973;28;46180;-65
2022/12/17 14:28:34;;;;;;;;;65.33;45.67;;;;;;;;5056198;28;45333;-65
2022/12/17 14:31:14;;;;;;;;;65.00;48.33;;;;;;;;5054919;28;45370;-65
2022/12/17 14:33:40;;;;;;;;;64.00;45.67;;;;;;;;5056103;28;45427;-65
2022/12/17 14:36:17;;;;;;;;;64.33;45.00;;;;;;;;5065148;28;45446;-65
2022/12/17 14:38:55;;;;;;;;;59.67;44.33;;;;;;;;5056808;27;45438;-65
2022/12/17 14:44:05;;;;;;;;;63.33;48.67;;;;;;;;5036078;28;45397;-65
2022/12/17 14:46:31;;;;;;;;;74.00;50.33;;;;;;;;5035652;28;46191;-65
2022/12/17 14:49:00;;;;;;;;;67.33;48.00;;;;;;;;5035592;28;45554;-65
2022/12/17 14:51:31;;;;;;;;;76.67;52.33;;;;;;;;5035647;28;45398;-65
2022/12/17 14:54:15;;;;;;;;;65.00;44.33;;;;;;;;5068400;28;45560;-65
2022/12/17 14:56:40;;;;;;;;;62.33;47.67;;;;;;;;5035582;28;45471;-65
2022/12/17 14:59:24;;;;;;;;;58.33;47.00;;;;;;;;5055013;28;45811;-65
2022/12/17 15:01:51;;;;;;;;;80.75;60.25;;;;;;;;5054754;28;45586;-65
2022/12/17 15:04:16;;;;;;;;;58.00;43.67;;;;;;;;5056066;28;45355;-65
2022/12/17 15:06:41;;;;;;;;;47.67;34.00;;;;;;;;5055484;28;45377;-65
2022/12/17 15:09:09;;;;;;;;;58.33;45.33;;;;;;;;5057786;28;45422;-65
2022/12/17 15:11:34;;;;;;;;;60.33;43.67;;;;;;;;5064405;27;45489;-65
2022/12/17 15:13:59;;;;;;;;;66.67;49.67;;;;;;;;5070416;28;45456;-65
2022/12/17 15:16:24;;;;;;;;;69.00;50.67;;;;;;;;5066553;28;46626;-65
2022/12/17 15:18:50;;;;;;;;;60.67;43.00;;;;;;;;5055594;28;45421;-66
2022/12/17 15:21:16;;;;;;;;;66.67;49.67;;;;;;;;5069198;28;45477;-65
2022/12/17 15:23:42;;;;;;;;;51.00;41.67;;;;;;;;5076012;28;45411;-65
2022/12/17 15:26:08;;;;;;;;;63.67;44.33;;;;;;;;5075354;27;45971;-65
2022/12/17 15:28:33;;;;;;;;;71.33;48.33;;;;;;;;5083698;27;45550;-66
2022/12/17 15:30:58;;;;;;;;;73.00;50.67;;;;;;;;5090526;27;45368;-65
2022/12/17 15:33:23;;;;;;;;;69.33;47.33;;;;;;;;5080058;27;45361;-65
2022/12/17 15:35:48;;;;;;;;;67.67;52.00;;;;;;;;5092772;27;46385;-66
2022/12/17 15:38:14;;;;;;;;;65.00;46.67;;;;;;;;5099423;27;45387;-65
2022/12/17 15:40:39;;;;;;;;;70.33;51.00;;;;;;;;5093046;27;45767;-65
2022/12/17 15:43:10;;;;;;;;;64.33;48.00;;;;;;;;5084876;27;45329;-66
2022/12/17 15:45:42;;;;;;;;;71.00;50.33;;;;;;;;5080162;27;45330;-66
2022/12/17 15:48:08;;;;;;;;;62.00;45.67;;;;;;;;5099278;27;45429;-66
2022/12/17 15:50:33;;;;;;;;;73.00;51.67;;;;;;;;5090102;27;45534;-65
2022/12/17 15:52:58;;;;;;;;;63.00;47.33;;;;;;;;5080415;27;45807;-67
2022/12/17 15:55:24;;;;;;;;;65.67;47.00;;;;;;;;5087560;27;46223;-65
2022/12/17 15:57:49;;;;;;;;;52.00;41.33;;;;;;;;5087941;27;45439;-65
2022/12/17 16:00:14;;;;;;;;;58.00;46.67;;;;;;;;5090922;27;45447;-66
2022/12/17 16:02:39;;;;;;;;;60.00;41.00;;;;;;;;5085860;27;45364;-67
2022/12/17 16:05:05;;;;;;;;;65.67;46.00;;;;;;;;5078428;28;46140;-65
2022/12/17 16:07:30;;;;;;;;;67.33;41.33;;;;;;;;5083566;27;45321;-65
2022/12/17 16:09:56;;;;;;;;;68.50;47.50;;;;;;;;5098801;27;45486;-65
2022/12/17 16:12:21;;;;;;;;;71.33;51.67;;;;;;;;5092657;27;45348;-65
2022/12/17 16:14:46;;;;;;;;;67.67;51.33;;;;;;;;5078450;28;46449;-65
2022/12/17 16:17:11;;;;;;;;;65.33;48.00;;;;;;;;5078434;28;45921;-65
2022/12/17 16:19:37;;;;;;;;;62.67;47.67;;;;;;;;5078430;28;45680;-65
2022/12/17 16:22:02;;;;;;;;;65.00;43.67;;;;;;;;5077906;27;45412;-65
2022/12/17 16:24:27;;;;;;;;;61.33;43.33;;;;;;;;5091542;27;45491;-65
2022/12/17 16:26:52;;;;;;;;;64.00;45.00;;;;;;;;5092474;27;45681;-66
2022/12/17 16:29:18;;;;;;;;;65.00;47.67;;;;;;;;5073375;28;45702;-65
2022/12/17 16:31:44;;;;;;;;;76.33;49.67;;;;;;;;5076755;28;45765;-65
2022/12/17 16:34:10;;;;;;;;;62.67;42.33;;;;;;;;5074039;28;47424;-65
2022/12/17 16:36:36;;;;;;;;;61.33;45.67;;;;;;;;5072718;28;45546;-65
2022/12/17 16:39:02;;;;;;;;;63.33;43.00;;;;;;;;5074425;28;46304;-65
2022/12/17 16:41:27;;;;;;;;;61.33;44.67;;;;;;;;5077972;27;45525;-64
2022/12/17 16:43:52;;;;;;;;;49.67;38.33;;;;;;;;5073600;27;46432;-64
2022/12/17 16:46:20;;;;;;;;;65.67;47.00;;;;;;;;5074864;27;45798;-64
2022/12/17 16:48:46;;;;;;;;;59.67;44.33;;;;;;;;5092513;27;45769;-64
2022/12/17 16:51:15;;;;;;;;;60.67;46.67;;;;;;;;5098471;27;45367;-64
2022/12/17 16:53:41;;;;;;;;;60.33;40.67;;;;;;;;5087613;27;45638;-66
2022/12/17 16:56:06;;;;;;;;;62.00;45.33;;;;;;;;5076590;28;45471;-65
2022/12/17 16:58:31;;;;;;;;;57.33;42.00;;;;;;;;5074984;27;45909;-65
2022/12/17 17:00:56;;;;;;;;;57.33;45.33;;;;;;;;5077036;28;45517;-65
2022/12/17 17:03:22;;;;;;;;;66.67;45.00;;;;;;;;5076632;27;47301;-68
2022/12/17 17:05:47;;;;;;;;;68.33;48.00;;;;;;;;5075379;28;45724;-65
2022/12/17 17:08:12;;;;;;;;;59.33;45.00;;;;;;;;5089701;27;45427;-66
2022/12/17 17:10:37;;;;;;;;;69.67;52.00;;;;;;;;5097285;27;45425;-65
2022/12/17 17:13:03;;;;;;;;;73.00;50.67;;;;;;;;5094020;27;45483;-65
2022/12/17 17:15:28;;;;;;;;;57.67;43.67;;;;;;;;5093660;27;45419;-65
2022/12/17 17:17:53;;;;;;;;;59.00;37.67;;;;;;;;5098096;27;45416;-65
2022/12/17 17:20:18;;;;;;;;;53.67;44.33;;;;;;;;5097874;27;45480;-65
2022/12/17 17:22:43;;;;;;;;;54.33;44.33;;;;;;;;5097551;27;46560;-64
2022/12/17 17:25:09;;;;;;;;;51.67;38.33;;;;;;;;5097578;27;45731;-64
2022/12/17 17:27:34;;;;;;;;;67.33;49.00;;;;;;;;5097467;27;45447;-64
2022/12/17 17:29:59;;;;;;;;;60.00;41.33;;;;;;;;5084290;27;45563;-64
2022/12/17 17:32:25;;;;;;;;;62.67;41.33;;;;;;;;5082776;27;46318;-64
2022/12/17 17:34:50;;;;;;;;;51.00;39.00;;;;;;;;5073258;27;45927;-65
2022/12/17 17:37:15;;;;;;;;;60.67;42.00;;;;;;;;5071552;27;45772;-66
2022/12/17 17:39:41;;;;;;;;;53.67;42.33;;;;;;;;5077176;27;45444;-67
2022/12/17 17:42:06;;;;;;;;;57.33;41.67;;;;;;;;5077602;27;45683;-67
2022/12/17 17:44:31;;;;;;;;;52.33;42.33;;;;;;;;5073962;27;45381;-67
2022/12/17 17:46:56;;;;;;;;;53.67;39.33;;;;;;;;5074064;27;45444;-65
2022/12/17 17:49:22;;;;;;;;;60.00;45.33;;;;;;;;5064317;27;45415;-63
2022/12/17 17:51:47;;;;;;;;;59.00;45.67;;;;;;;;5046202;28;48236;-65
2022/12/17 17:54:12;;;;;;;;;57.33;45.00;;;;;;;;5067379;28;45427;-64
2022/12/17 17:56:38;;;;;;;;;68.00;49.33;;;;;;;;5071817;27;45392;-65
2022/12/17 17:59:08;;;;;;;;;65.67;47.00;;;;;;;;5066035;28;45395;-65
2022/12/17 18:01:35;;;;;;;;;73.67;52.00;;;;;;;;5069692;27;45744;-64
2022/12/17 18:04:01;;;;;;;;;59.67;47.67;;;;;;;;5071628;27;45514;-63
2022/12/17 18:06:26;;;;;;;;;71.33;53.67;;;;;;;;5078793;27;45389;-64
2022/12/17 18:08:53;;;;;;;;;66.67;47.67;;;;;;;;5077172;27;45496;-64
2022/12/17 18:11:19;;;;;;;;;58.00;38.33;;;;;;;;5059036;28;45676;-64
2022/12/17 18:13:53;;;;;;;;;65.67;50.33;;;;;;;;5055927;28;45462;-64
2022/12/17 18:16:19;;;;;;;;;64.33;43.00;;;;;;;;5079024;27;46402;-64
2022/12/17 18:18:45;;;;;;;;;56.67;42.00;;;;;;;;5082586;27;45517;-64
2022/12/17 18:21:11;;;;;;;;;64.00;43.00;;;;;;;;5085445;27;46373;-64
2022/12/17 18:23:37;;;;;;;;;59.67;43.67;;;;;;;;5076220;27;45412;-64
2022/12/17 18:26:21;;;;;;;;;53.00;39.33;;;;;;;;5071901;27;45447;-64
2022/12/17 18:28:46;;;;;;;;;68.00;44.33;;;;;;;;5056634;28;45606;-64
2022/12/17 18:31:16;;;;;;;;;49.67;41.33;;;;;;;;5067697;28;46610;-66
2022/12/17 18:33:43;;;;;;;;;47.67;40.00;;;;;;;;5075572;28;45375;-65
2022/12/17 18:36:10;;;;;;;;;69.67;46.33;;;;;;;;5078593;27;45677;-65
2022/12/17 18:38:35;;;;;;;;;57.00;45.33;;;;;;;;5081644;27;45517;-65
2022/12/17 18:41:04;;;;;;;;;65.00;46.33;;;;;;;;5078963;27;45443;-64
2022/12/17 18:43:29;;;;;;;;;64.33;49.00;;;;;;;;5078417;27;46460;-64
2022/12/17 18:45:54;;;;;;;;;63.67;47.00;;;;;;;;5076720;27;46237;-64
2022/12/17 18:48:20;;;;;;;;;58.33;45.33;;;;;;;;5091281;27;45503;-65
2022/12/17 18:50:45;;;;;;;;;60.67;43.67;;;;;;;;5066795;27;45607;-65
2022/12/17 18:53:11;;;;;;;;;52.00;43.67;;;;;;;;5090893;27;45361;-63
2022/12/17 18:55:39;;;;;;;;;53.00;43.67;;;;;;;;5069938;27;45361;-63
2022/12/17 18:58:08;;;;;;;;;70.00;50.67;;;;;;;;5080833;27;45491;-64
2022/12/17 19:00:33;;;;;;;;;64.33;51.00;;;;;;;;5068745;27;45667;-64
2022/12/17 19:02:58;;;;;;;;;65.33;47.00;;;;;;;;5069032;27;45364;-65
2022/12/17 19:05:24;;;;;;;;;64.33;50.00;;;;;;;;5070618;27;45386;-65
2022/12/17 19:07:49;;;;;;;;;65.33;50.00;;;;;;;;5069176;28;45404;-63
2022/12/17 19:10:14;;;;;;;;;66.00;47.00;;;;;;;;5072545;27;45510;-63
2022/12/17 19:12:39;;;;;;;;;70.00;49.00;;;;;;;;5082282;27;45533;-65
2022/12/17 19:15:05;;;;;;;;;64.67;45.33;;;;;;;;5070872;27;45409;-64
2022/12/17 19:17:30;;;;;;;;;69.00;52.00;;;;;;;;5072657;27;45544;-64
2022/12/17 19:19:55;;;;;;;;;68.67;50.33;;;;;;;;5074971;27;46913;-65
2022/12/17 19:22:20;;;;;;;;;64.00;48.67;;;;;;;;5069710;28;45380;-64
2022/12/17 19:24:46;;;;;;;;;76.25;54.75;;;;;;;;5068551;28;45455;-65
2022/12/17 19:27:11;;;;;;;;;68.00;51.33;;;;;;;;5068125;28;45363;-63
2022/12/17 19:29:36;;;;;;;;;72.33;49.67;;;;;;;;5069624;28;46223;-65
2022/12/17 19:32:02;;;;;;;;;61.33;47.67;;;;;;;;5071734;27;45458;-63
2022/12/17 19:34:27;;;;;;;;;66.00;49.67;;;;;;;;5066630;28;45310;-65
2022/12/17 19:36:52;;;;;;;;;60.67;47.00;;;;;;;;5083154;27;45304;-64
2022/12/17 19:39:18;;;;;;;;;67.33;49.33;;;;;;;;5071584;27;45387;-65
2022/12/17 19:41:43;;;;;;;;;60.00;46.67;;;;;;;;5071234;27;45399;-64
2022/12/17 19:44:13;;;;;;;;;59.67;46.00;;;;;;;;5070408;27;45777;-64
2022/12/17 19:46:38;;;;;;;;;72.00;49.67;;;;;;;;5069644;28;45461;-67
2022/12/17 19:49:03;;;;;;;;;66.67;48.00;;;;;;;;5074467;28;46172;-65
2022/12/17 19:51:29;;;;;;;;;62.33;45.67;;;;;;;;5070924;27;45518;-67
2022/12/17 19:53:55;;;;;;;;;55.67;42.00;;;;;;;;5071695;27;45939;-66
2022/12/17 19:56:20;;;;;;;;;63.67;49.67;;;;;;;;5066732;28;45551;-66
2022/12/17 19:58:47;;;;;;;;;68.67;48.00;;;;;;;;5073045;28;45844;-67
2022/12/17 20:01:12;;;;;;;;;125.00;96.75;;;;;;;;5068718;28;45328;-69
2022/12/17 20:03:38;;;;;;;;;60.67;46.33;;;;;;;;5066881;28;45417;-68
2022/12/17 20:06:04;;;;;;;;;69.00;53.00;;;;;;;;5073209;27;45395;-65
2022/12/17 20:08:30;;;;;;;;;74.67;51.00;;;;;;;;5070441;27;45436;-65
2022/12/17 20:10:55;;;;;;;;;71.67;51.00;;;;;;;;5070444;27;45912;-66
2022/12/17 20:13:20;;;;;;;;;62.00;50.33;;;;;;;;5071396;27;45504;-67
2022/12/17 20:15:46;;;;;;;;;65.33;49.33;;;;;;;;5058428;28;45519;-65
2022/12/17 20:18:11;;;;;;;;;75.67;51.33;;;;;;;;5078468;28;46579;-67
2022/12/17 20:20:36;;;;;;;;;62.33;43.67;;;;;;;;5078323;28;45420;-66
2022/12/17 20:23:01;;;;;;;;;61.00;43.33;;;;;;;;5078521;27;45300;-67
2022/12/17 20:25:26;;;;;;;;;67.33;43.67;;;;;;;;5078226;27;45408;-66
2022/12/17 20:27:52;;;;;;;;;70.00;48.67;;;;;;;;5078058;28;45589;-63
2022/12/17 20:30:17;;;;;;;;;70.33;52.33;;;;;;;;5078491;27;45380;-65
2022/12/17 20:32:43;;;;;;;;;60.00;46.67;;;;;;;;5077601;27;45423;-64
2022/12/17 20:35:08;;;;;;;;;67.00;51.00;;;;;;;;5083270;27;45496;-63
2022/12/17 20:37:34;;;;;;;;;68.00;50.00;;;;;;;;5090870;27;46389;-64
2022/12/17 20:39:59;;;;;;;;;72.75;53.50;;;;;;;;5078761;27;45413;-66
2022/12/17 20:42:24;;;;;;;;;67.67;51.33;;;;;;;;5076297;27;45443;-65
2022/12/17 20:44:49;;;;;;;;;72.67;52.33;;;;;;;;5043158;28;45472;-64
2022/12/17 20:47:15;;;;;;;;;70.00;53.33;;;;;;;;5077413;28;46370;-66
2022/12/17 20:49:40;;;;;;;;;74.00;51.00;;;;;;;;5078121;28;45487;-65
2022/12/17 20:52:05;;;;;;;;;72.67;52.33;;;;;;;;5078039;28;45345;-64
2022/12/17 20:54:30;;;;;;;;;73.00;52.67;;;;;;;;5078337;28;45413;-65
2022/12/17 20:56:55;;;;;;;;;76.00;55.67;;;;;;;;5077885;28;45537;-65
2022/12/17 20:59:21;;;;;;;;;74.33;51.67;;;;;;;;5076879;27;45427;-65
2022/12/17 21:01:46;;;;;;;;;63.33;49.67;;;;;;;;5075597;27;45456;-65
2022/12/17 21:04:12;;;;;;;;;62.67;43.00;;;;;;;;5077963;28;45451;-65
2022/12/17 21:06:39;;;;;;;;;77.33;54.00;;;;;;;;5077480;27;46734;-64
2022/12/17 21:09:04;;;;;;;;;64.00;48.33;;;;;;;;5077521;27;45210;-64
2022/12/17 21:11:30;;;;;;;;;75.67;52.33;;;;;;;;5073115;27;45483;-64
2022/12/17 21:13:56;;;;;;;;;69.67;51.00;;;;;;;;5069905;27;45644;-65
2022/12/17 21:16:23;;;;;;;;;62.33;46.00;;;;;;;;5075173;28;47237;-65
2022/12/17 21:18:48;;;;;;;;;70.67;51.67;;;;;;;;5076801;28;45495;-65
2022/12/17 21:21:15;;;;;;;;;69.00;52.00;;;;;;;;5059000;28;45415;-65
2022/12/17 21:23:41;;;;;;;;;69.00;51.00;;;;;;;;5077049;28;45872;-66
2022/12/17 21:26:12;;;;;;;;;72.33;50.67;;;;;;;;5074716;28;46043;-67
2022/12/17 21:28:38;;;;;;;;;72.67;51.67;;;;;;;;5074077;27;46150;-64
2022/12/17 21:31:04;;;;;;;;;68.67;47.00;;;;;;;;5076843;28;45384;-65
2022/12/17 21:33:29;;;;;;;;;71.67;50.00;;;;;;;;5077567;28;45389;-65
2022/12/17 21:36:02;;;;;;;;;62.67;46.67;;;;;;;;5077018;28;45676;-65
2022/12/17 21:38:27;;;;;;;;;69.33;50.67;;;;;;;;5077367;28;45526;-66
2022/12/17 21:40:53;;;;;;;;;58.33;43.67;;;;;;;;5076129;28;45462;-65
2022/12/17 21:43:18;;;;;;;;;63.00;48.00;;;;;;;;5077097;28;45527;-65
2022/12/17 21:45:44;;;;;;;;;68.00;51.67;;;;;;;;5079135;27;45590;-64
2022/12/17 21:48:09;;;;;;;;;63.67;48.33;;;;;;;;5075901;27;45663;-66
2022/12/17 21:50:41;;;;;;;;;63.00;48.00;;;;;;;;5077012;28;45411;-65
2022/12/17 21:53:07;;;;;;;;;67.67;45.67;;;;;;;;5077273;28;45461;-65
2022/12/17 21:55:32;;;;;;;;;69.33;46.67;;;;;;;;5076482;28;46118;-64
2022/12/17 21:57:57;;;;;;;;;65.33;48.67;;;;;;;;5071956;28;45517;-67
2022/12/17 22:00:23;;;;;;;;;64.00;47.67;;;;;;;;5075780;28;45435;-65
2022/12/17 22:02:48;;;;;;;;;55.00;46.00;;;;;;;;5081206;27;46458;-65
2022/12/17 22:05:13;;;;;;;;;65.67;47.33;;;;;;;;5082756;27;45548;-65
2022/12/17 22:07:38;;;;;;;;;69.33;46.33;;;;;;;;5076945;28;45841;-65
2022/12/17 22:10:04;;;;;;;;;72.33;51.33;;;;;;;;5095176;27;45411;-66
2022/12/17 22:15:13;;;;;;;;;67.33;47.00;;;;;;;;5096779;27;45512;-65
2022/12/17 22:17:38;;;;;;;;;61.33;47.67;;;;;;;;5084100;27;45380;-65
2022/12/17 22:20:04;;;;;;;;;66.67;52.67;;;;;;;;5078462;27;45423;-66
2022/12/17 22:22:29;;;;;;;;;80.33;52.33;;;;;;;;5080763;27;45409;-64
2022/12/17 22:24:54;;;;;;;;;71.33;50.00;;;;;;;;5076564;28;46312;-64
2022/12/17 22:27:20;;;;;;;;;74.67;52.00;;;;;;;;5077763;27;45636;-65
2022/12/17 22:35:13;;;;;;;;;66.33;48.00;;;;;;;;5095776;27;45860;-66
2022/12/17 22:37:38;;;;;;;;;67.67;52.33;;;;;;;;5090696;27;45399;-66
2022/12/17 22:40:03;;;;;;;;;70.00;53.33;;;;;;;;5080294;28;45364;-66
2022/12/17 22:45:12;;;;;;;;;72.67;49.33;;;;;;;;5082700;27;45431;-67
2022/12/17 22:47:37;;;;;;;;;76.33;50.33;;;;;;;;5083338;27;45427;-66
2022/12/17 22:50:03;;;;;;;;;76.33;52.00;;;;;;;;5100487;27;45340;-67
2022/12/17 22:52:28;;;;;;;;;79.00;53.00;;;;;;;;5100091;27;45463;-67
2022/12/17 22:54:53;;;;;;;;;71.67;52.33;;;;;;;;5095489;27;46182;-66
2022/12/17 22:57:18;;;;;;;;;72.00;52.67;;;;;;;;5079618;28;45434;-66
2022/12/17 22:59:44;;;;;;;;;75.33;54.00;;;;;;;;5085631;27;45568;-63
2022/12/17 23:02:10;;;;;;;;;71.67;51.00;;;;;;;;5089480;27;45278;-63
2022/12/17 23:04:35;;;;;;;;;75.00;49.67;;;;;;;;5070649;28;47127;-64
2022/12/17 23:07:01;;;;;;;;;70.00;51.67;;;;;;;;5069960;27;45375;-64
2022/12/17 23:09:26;;;;;;;;;69.00;52.33;;;;;;;;5068587;28;45454;-65
2022/12/17 23:11:51;;;;;;;;;68.67;51.67;;;;;;;;5075958;27;45583;-65
2022/12/17 23:14:17;;;;;;;;;75.00;54.33;;;;;;;;5070208;27;46783;-66
2022/12/17 23:16:42;;;;;;;;;75.67;55.67;;;;;;;;5065061;27;45364;-65
2022/12/17 23:19:08;;;;;;;;;71.33;51.67;;;;;;;;5099951;27;45494;-65
2022/12/17 23:21:33;;;;;;;;;70.33;52.00;;;;;;;;5093450;27;45479;-65
2022/12/17 23:23:59;;;;;;;;;77.00;58.00;;;;;;;;5085646;27;46339;-65
2022/12/17 23:26:34;;;;;;;;;76.75;57.75;;;;;;;;5081815;27;45425;-65
2022/12/17 23:29:00;;;;;;;;;77.75;57.00;;;;;;;;5086423;27;45505;-65
2022/12/17 23:31:27;;;;;;;;;74.00;54.00;;;;;;;;5065006;27;45471;-65
2022/12/17 23:33:52;;;;;;;;;72.00;57.25;;;;;;;;5086239;27;47173;-65
2022/12/17 23:36:19;;;;;;;;;72.33;54.33;;;;;;;;5079020;28;45415;-65
2022/12/17 23:38:44;;;;;;;;;80.50;58.25;;;;;;;;5099296;27;45871;-65
2022/12/17 23:41:11;;;;;;;;;75.67;55.33;;;;;;;;5099672;27;45404;-65
2022/12/17 23:43:36;;;;;;;;;76.00;56.67;;;;;;;;5097291;27;45581;-65
2022/12/17 23:46:02;;;;;;;;;75.75;55.50;;;;;;;;5084032;27;45485;-65
2022/12/17 23:48:31;;;;;;;;;81.25;58.50;;;;;;;;5092299;27;45459;-65
2022/12/17 23:50:56;;;;;;;;;81.75;58.25;;;;;;;;5082413;27;45442;-65
2022/12/17 23:53:22;;;;;;;;;76.75;54.25;;;;;;;;5081686;27;46240;-64
2022/12/17 23:55:48;;;;;;;;;78.00;57.75;;;;;;;;5084325;27;45333;-65
2022/12/17 23:58:13;;;;;;;;;76.50;54.50;;;;;;;;5086047;27;45491;-65
